createdAt,value
2022-08-09T00:00:06.161Z,23.90
2022-08-09T00:01:03.057Z,23.94
2022-08-09T00:02:03.389Z,23.87
2022-08-09T00:03:11.007Z,23.86
2022-08-09T00:04:15.395Z,23.85
2022-08-09T00:06:17.736Z,23.83
2022-08-09T00:06:17.934Z,23.83
2022-08-09T00:07:07.655Z,23.76
2022-08-09T00:08:10.210Z,23.70
2022-08-09T00:09:05.488Z,23.71
2022-08-09T00:10:05.533Z,23.68
2022-08-09T00:11:24.409Z,23.67
2022-08-09T00:12:08.027Z,23.67
2022-08-09T00:13:06.375Z,23.68
2022-08-09T00:14:07.650Z,23.68
2022-08-09T00:15:07.111Z,23.62
2022-08-09T00:16:08.217Z,23.60
2022-08-09T00:17:07.443Z,23.55
2022-08-09T00:18:11.389Z,23.52
2022-08-09T00:19:09.515Z,23.50
2022-08-09T00:20:08.339Z,23.50
2022-08-09T00:21:08.922Z,23.47
2022-08-09T00:22:08.906Z,23.50
2022-08-09T00:23:55.355Z,23.47
2022-08-09T00:24:10.494Z,23.47
2022-08-09T00:25:10.300Z,23.46
2022-08-09T00:26:11.069Z,23.46
2022-08-09T00:27:10.334Z,23.49
2022-08-09T00:28:10.626Z,23.46
2022-08-09T00:29:12.302Z,23.49
2022-08-09T00:30:25.369Z,23.46
2022-08-09T00:31:57.399Z,23.42
2022-08-09T00:32:12.885Z,23.42
2022-08-09T00:33:13.172Z,23.40
2022-08-09T00:34:12.468Z,23.38
2022-08-09T00:35:12.788Z,23.34
2022-08-09T00:36:13.060Z,23.31
2022-08-09T00:37:13.377Z,23.32
2022-08-09T00:38:13.627Z,23.32
2022-08-09T00:40:09.793Z,23.31
2022-08-09T00:40:17.463Z,23.27
2022-08-09T00:44:10.786Z,23.24
2022-08-09T00:44:16.635Z,23.26
2022-08-09T00:44:24.605Z,23.22
2022-08-09T00:44:26.572Z,23.17
2022-08-09T00:45:16.786Z,23.14
2022-08-09T00:46:37.054Z,23.11
2022-08-09T00:47:17.335Z,23.11
2022-08-09T00:48:19.449Z,23.07
2022-08-09T00:49:17.023Z,23.05
2022-08-09T00:50:17.231Z,22.99
2022-08-09T00:51:17.385Z,22.96
2022-08-09T00:52:17.989Z,22.93
2022-08-09T00:53:17.974Z,22.99
2022-08-09T00:54:19.296Z,22.96
2022-08-09T00:56:03.735Z,22.97
2022-08-09T00:56:19.875Z,23.01
2022-08-09T00:57:33.704Z,23.01
2022-08-09T00:58:22.248Z,23.05
2022-08-09T00:59:40.360Z,23.01
2022-08-09T01:00:23.771Z,23.04
2022-08-09T01:01:20.285Z,23.02
2022-08-09T01:02:20.507Z,23.08
2022-08-09T01:03:21.296Z,23.04
2022-08-09T01:04:22.087Z,23.02
2022-08-09T01:05:22.137Z,23.05
2022-08-09T01:06:21.659Z,23.01
2022-08-09T01:07:37.850Z,22.99
2022-08-09T01:08:27.238Z,22.94
2022-08-09T01:09:23.286Z,22.94
2022-08-09T01:10:22.910Z,22.90
2022-08-09T01:11:23.171Z,22.86
2022-08-09T01:12:23.477Z,22.87
2022-08-09T01:13:23.651Z,22.83
2022-08-09T01:14:24.936Z,22.80
2022-08-09T01:15:24.281Z,22.72
2022-08-09T01:16:24.799Z,22.72
2022-08-09T01:17:24.842Z,22.69
2022-08-09T01:18:30.162Z,22.69
2022-08-09T01:19:40.080Z,22.65
2022-08-09T01:20:26.984Z,22.64
2022-08-09T01:21:25.936Z,22.65
2022-08-09T01:22:27.308Z,22.60
2022-08-09T01:24:02.940Z,22.64
2022-08-09T01:24:27.873Z,22.65
2022-08-09T01:25:27.118Z,22.64
2022-08-09T01:26:27.352Z,22.64
2022-08-09T01:27:27.684Z,22.65
2022-08-09T01:28:28.039Z,22.64
2022-08-09T01:29:28.361Z,22.59
2022-08-09T01:30:35.553Z,22.65
2022-08-09T01:32:30.089Z,22.64
2022-08-09T01:32:33.864Z,22.57
2022-08-09T01:33:29.354Z,22.59
2022-08-09T01:34:29.669Z,22.59
2022-08-09T01:35:38.029Z,22.57
2022-08-09T01:36:31.199Z,22.57
2022-08-09T01:38:05.713Z,22.53
2022-08-09T01:38:31.767Z,22.53
2022-08-09T01:39:31.119Z,22.53
2022-08-09T01:40:33.282Z,22.52
2022-08-09T01:41:31.611Z,22.47
2022-08-09T01:42:33.047Z,22.47
2022-08-09T01:43:32.202Z,22.47
2022-08-09T01:44:33.458Z,22.41
2022-08-09T01:45:32.850Z,22.35
2022-08-09T01:46:33.105Z,22.35
2022-08-09T01:47:33.379Z,22.34
2022-08-09T01:48:34.714Z,22.32
2022-08-09T01:49:39.123Z,22.27
2022-08-09T01:50:36.771Z,22.27
2022-08-09T01:51:34.492Z,22.28
2022-08-09T01:52:34.809Z,22.29
2022-08-09T01:53:41.465Z,22.27
2022-08-09T01:54:36.473Z,22.28
2022-08-09T01:55:35.673Z,22.28
2022-08-09T01:56:36.366Z,22.28
2022-08-09T01:57:40.164Z,22.27
2022-08-09T01:58:37.539Z,22.28
2022-08-09T01:59:50.899Z,22.25
2022-08-09T02:00:38.066Z,22.22
2022-08-09T02:02:00.031Z,22.23
2022-08-09T02:02:38.646Z,22.22
2022-08-09T02:03:37.884Z,22.23
2022-08-09T02:04:45.663Z,22.23
2022-08-09T02:05:53.491Z,22.23
2022-08-09T02:06:39.703Z,22.22
2022-08-09T02:08:39.897Z,22.25
2022-08-09T02:08:58.962Z,22.25
2022-08-09T02:09:42.411Z,22.23
2022-08-09T02:10:39.921Z,22.20
2022-08-09T02:11:42.001Z,22.20
2022-08-09T02:12:40.318Z,22.16
2022-08-09T02:13:40.793Z,22.14
2022-08-09T02:14:40.889Z,22.12
2022-08-09T02:15:49.472Z,22.09
2022-08-09T02:16:59.968Z,22.10
2022-08-09T02:17:59.361Z,22.06
2022-08-09T02:18:47.873Z,22.02
2022-08-09T02:19:43.776Z,22.06
2022-08-09T02:20:42.581Z,22.07
2022-08-09T02:21:42.854Z,22.06
2022-08-09T02:22:46.410Z,22.06
2022-08-09T02:23:43.493Z,22.09
2022-08-09T02:24:43.811Z,22.06
2022-08-09T02:25:49.418Z,22.02
2022-08-09T02:26:45.389Z,22.01
2022-08-09T02:28:00.234Z,21.99
2022-08-09T02:28:45.935Z,21.97
2022-08-09T02:29:45.227Z,21.94
2022-08-09T02:30:46.402Z,21.94
2022-08-09T02:31:45.752Z,21.92
2022-08-09T02:32:46.027Z,21.91
2022-08-09T02:33:58.290Z,21.88
2022-08-09T02:34:51.988Z,21.83
2022-08-09T02:36:03.128Z,21.79
2022-08-09T02:36:48.144Z,21.78
2022-08-09T02:37:47.382Z,21.75
2022-08-09T02:38:48.941Z,21.76
2022-08-09T02:39:49.932Z,21.76
2022-08-09T02:40:49.433Z,21.72
2022-08-09T02:41:48.592Z,21.74
2022-08-09T02:42:50.979Z,21.71
2022-08-09T02:43:54.710Z,21.64
2022-08-09T02:44:50.391Z,21.64
2022-08-09T02:45:49.827Z,21.63
2022-08-09T02:46:52.218Z,21.61
2022-08-09T02:47:59.365Z,21.59
2022-08-09T02:48:51.707Z,21.60
2022-08-09T02:50:01.124Z,21.56
2022-08-09T02:50:56.313Z,21.54
2022-08-09T02:51:51.491Z,21.54
2022-08-09T02:52:55.326Z,21.54
2022-08-09T02:53:53.073Z,21.56
2022-08-09T02:54:54.964Z,21.53
2022-08-09T02:55:58.480Z,21.50
2022-08-09T02:56:56.922Z,21.54
2022-08-09T02:58:00.774Z,21.51
2022-08-09T02:58:54.395Z,21.54
2022-08-09T03:00:21.241Z,21.53
2022-08-09T03:00:58.621Z,21.46
2022-08-09T03:02:06.411Z,21.46
2022-08-09T03:02:59.788Z,21.44
2022-08-09T03:04:17.476Z,21.46
2022-08-09T03:04:56.106Z,21.39
2022-08-09T03:05:55.584Z,21.35
2022-08-09T03:06:55.723Z,21.35
2022-08-09T03:07:56.075Z,21.32
2022-08-09T03:08:56.251Z,21.32
2022-08-09T03:10:00.395Z,21.34
2022-08-09T03:10:56.865Z,21.34
2022-08-09T03:12:05.424Z,21.27
2022-08-09T03:12:58.550Z,21.29
2022-08-09T03:14:01.211Z,21.26
2022-08-09T03:14:57.994Z,21.21
2022-08-09T03:16:06.393Z,21.27
2022-08-09T03:16:59.638Z,21.27
2022-08-09T03:17:59.140Z,21.30
2022-08-09T03:19:01.889Z,21.32
2022-08-09T03:20:03.675Z,21.32
2022-08-09T03:21:00.916Z,21.32
2022-08-09T03:22:00.087Z,21.34
2022-08-09T03:23:14.949Z,21.30
2022-08-09T03:24:04.817Z,21.29
2022-08-09T03:25:06.471Z,21.30
2022-08-09T03:26:05.156Z,21.29
2022-08-09T03:27:01.499Z,21.26
2022-08-09T03:28:01.755Z,21.26
2022-08-09T03:29:02.031Z,21.27
2022-08-09T03:30:03.373Z,21.24
2022-08-09T03:31:04.429Z,21.24
2022-08-09T03:32:03.838Z,21.26
2022-08-09T03:33:13.386Z,21.27
2022-08-09T03:34:04.366Z,21.27
2022-08-09T03:35:04.961Z,21.27
2022-08-09T03:36:13.347Z,21.24
2022-08-09T03:37:54.421Z,21.23
2022-08-09T03:38:05.559Z,21.19
2022-08-09T03:39:04.871Z,21.20
2022-08-09T03:40:05.234Z,21.09
2022-08-09T03:41:05.364Z,21.05
2022-08-09T03:42:06.806Z,21.02
2022-08-09T03:43:06.115Z,21.02
2022-08-09T03:44:08.972Z,21.08
2022-08-09T03:45:06.542Z,21.06
2022-08-09T03:46:20.641Z,21.08
2022-08-09T03:47:08.037Z,21.09
2022-08-09T03:48:07.325Z,21.09
2022-08-09T03:49:08.719Z,21.14
2022-08-09T03:50:07.938Z,21.11
2022-08-09T03:51:08.192Z,21.13
2022-08-09T03:52:09.516Z,21.11
2022-08-09T03:53:10.709Z,21.09
2022-08-09T03:54:10.713Z,21.09
2022-08-09T03:55:09.778Z,21.08
2022-08-09T03:56:13.236Z,21.09
2022-08-09T03:57:18.163Z,21.06
2022-08-09T03:58:16.566Z,21.06
2022-08-09T03:59:17.048Z,21.01
2022-08-09T04:00:11.800Z,20.96
2022-08-09T04:01:12.146Z,20.93
2022-08-09T04:02:11.419Z,20.91
2022-08-09T04:03:15.345Z,20.90
2022-08-09T04:04:14.661Z,20.93
2022-08-09T04:05:17.103Z,20.86
2022-08-09T04:06:13.626Z,20.87
2022-08-09T04:07:12.944Z,20.84
2022-08-09T04:08:13.305Z,20.83
2022-08-09T04:09:41.481Z,20.84
2022-08-09T04:10:14.772Z,20.84
2022-08-09T04:11:14.149Z,20.84
2022-08-09T04:12:30.871Z,20.86
2022-08-09T04:13:18.630Z,20.89
2022-08-09T04:14:53.002Z,20.91
2022-08-09T04:15:29.406Z,20.93
2022-08-09T04:16:19.537Z,20.99
2022-08-09T04:17:15.906Z,20.93
2022-08-09T04:18:16.669Z,20.98
2022-08-09T04:19:30.258Z,20.98
2022-08-09T04:20:17.716Z,21.01
2022-08-09T04:21:16.955Z,20.93
2022-08-09T04:22:17.199Z,20.96
2022-08-09T04:23:18.037Z,20.96
2022-08-09T04:24:18.810Z,20.95
2022-08-09T04:25:18.044Z,20.96
2022-08-09T04:26:18.288Z,20.91
2022-08-09T04:27:22.032Z,20.93
2022-08-09T04:28:30.772Z,20.91
2022-08-09T04:29:20.041Z,20.93
2022-08-09T04:30:20.898Z,20.91
2022-08-09T04:31:19.532Z,20.93
2022-08-09T04:32:31.228Z,20.91
2022-08-09T04:33:21.037Z,20.91
2022-08-09T04:34:31.606Z,20.91
2022-08-09T04:35:22.065Z,20.89
2022-08-09T04:36:20.986Z,20.86
2022-08-09T04:37:21.226Z,20.84
2022-08-09T04:38:21.505Z,20.84
2022-08-09T04:39:21.804Z,20.81
2022-08-09T04:40:36.354Z,20.80
2022-08-09T04:41:23.669Z,20.83
2022-08-09T04:42:22.492Z,20.84
2022-08-09T04:43:22.823Z,20.86
2022-08-09T04:44:23.107Z,20.83
2022-08-09T04:45:23.635Z,20.79
2022-08-09T04:46:36.621Z,20.79
2022-08-09T04:47:24.974Z,20.74
2022-08-09T04:48:33.411Z,20.68
2022-08-09T04:49:40.651Z,20.64
2022-08-09T04:50:31.890Z,20.59
2022-08-09T04:51:26.166Z,20.59
2022-08-09T04:52:32.419Z,20.61
2022-08-09T04:53:26.685Z,20.56
2022-08-09T04:54:25.915Z,20.56
2022-08-09T04:55:26.255Z,20.59
2022-08-09T04:56:26.546Z,20.58
2022-08-09T04:57:26.864Z,20.56
2022-08-09T04:58:28.105Z,20.56
2022-08-09T04:59:27.332Z,20.56
2022-08-09T05:00:31.618Z,20.59
2022-08-09T05:01:28.994Z,20.61
2022-08-09T05:02:28.225Z,20.64
2022-08-09T05:03:40.460Z,20.68
2022-08-09T05:04:30.978Z,20.69
2022-08-09T05:05:32.086Z,20.72
2022-08-09T05:06:35.757Z,20.74
2022-08-09T05:07:32.002Z,20.74
2022-08-09T05:08:29.886Z,20.72
2022-08-09T05:09:42.298Z,20.71
2022-08-09T05:10:31.336Z,20.74
2022-08-09T05:11:35.298Z,20.76
2022-08-09T05:12:33.247Z,20.72
2022-08-09T05:13:33.176Z,20.74
2022-08-09T05:14:31.378Z,20.66
2022-08-09T05:15:42.692Z,20.61
2022-08-09T05:16:33.074Z,20.58
2022-08-09T05:18:38.484Z,20.51
2022-08-09T05:18:42.348Z,20.49
2022-08-09T05:19:44.644Z,20.47
2022-08-09T05:20:34.195Z,20.43
2022-08-09T05:21:36.526Z,20.41
2022-08-09T05:23:50.930Z,20.43
2022-08-09T05:23:53.989Z,20.47
2022-08-09T05:24:35.290Z,20.50
2022-08-09T05:25:34.546Z,20.51
2022-08-09T05:26:36.837Z,20.54
2022-08-09T05:27:39.042Z,20.56
2022-08-09T05:28:36.453Z,20.58
2022-08-09T05:29:35.782Z,20.64
2022-08-09T05:30:36.495Z,20.61
2022-08-09T05:31:44.087Z,20.68
2022-08-09T05:32:37.538Z,20.72
2022-08-09T05:33:36.891Z,20.74
2022-08-09T05:34:38.162Z,20.76
2022-08-09T05:35:46.698Z,20.76
2022-08-09T05:36:38.590Z,20.77
2022-08-09T05:37:44.723Z,20.76
2022-08-09T05:38:39.350Z,20.80
2022-08-09T05:39:42.566Z,20.84
2022-08-09T05:40:38.737Z,20.83
2022-08-09T05:41:39.071Z,20.84
2022-08-09T05:42:39.359Z,20.87
2022-08-09T05:43:40.784Z,20.90
2022-08-09T05:44:40.941Z,20.93
2022-08-09T05:45:43.492Z,20.98
2022-08-09T05:46:41.480Z,20.98
2022-08-09T05:47:40.880Z,21.04
2022-08-09T05:48:41.988Z,21.05
2022-08-09T05:50:32.270Z,21.06
2022-08-09T05:50:51.308Z,21.05
2022-08-09T05:51:46.160Z,21.06
2022-08-09T05:52:42.268Z,21.06
2022-08-09T05:53:56.575Z,21.09
2022-08-09T05:54:43.697Z,21.13
2022-08-09T05:55:42.963Z,21.16
2022-08-09T05:56:55.404Z,21.13
2022-08-09T05:57:44.682Z,21.16
2022-08-09T05:58:44.838Z,21.17
2022-08-09T05:59:44.133Z,21.17
2022-08-09T06:00:44.462Z,21.17
2022-08-09T06:01:44.687Z,21.19
2022-08-09T06:02:46.398Z,21.24
2022-08-09T06:03:58.043Z,21.29
2022-08-09T06:04:46.529Z,21.36
2022-08-09T06:05:50.066Z,21.41
2022-08-09T06:06:50.072Z,21.46
2022-08-09T06:08:05.003Z,21.50
2022-08-09T06:08:52.737Z,21.50
2022-08-09T06:10:01.442Z,21.53
2022-08-09T06:10:48.122Z,21.57
2022-08-09T06:11:56.796Z,21.64
2022-08-09T06:12:57.745Z,21.67
2022-08-09T06:13:48.936Z,21.74
2022-08-09T06:14:49.101Z,21.76
2022-08-09T06:15:51.475Z,21.78
2022-08-09T06:16:52.386Z,21.79
2022-08-09T06:17:49.205Z,21.81
2022-08-09T06:18:49.559Z,21.82
2022-08-09T06:19:49.833Z,21.79
2022-08-09T06:20:56.645Z,21.82
2022-08-09T06:21:58.438Z,21.82
2022-08-09T06:22:51.627Z,21.90
2022-08-09T06:23:57.519Z,21.88
2022-08-09T06:24:52.196Z,21.92
2022-08-09T06:25:55.160Z,21.94
2022-08-09T06:26:51.718Z,21.97
2022-08-09T06:27:52.050Z,22.01
2022-08-09T06:29:00.163Z,22.04
2022-08-09T06:30:04.437Z,22.06
2022-08-09T06:30:53.824Z,22.10
2022-08-09T06:32:08.468Z,22.12
2022-08-09T06:33:39.926Z,22.17
2022-08-09T06:33:54.691Z,22.25
2022-08-09T06:34:53.913Z,22.27
2022-08-09T06:35:57.748Z,22.28
2022-08-09T06:36:58.923Z,22.31
2022-08-09T06:38:06.009Z,22.34
2022-08-09T06:38:57.067Z,22.41
2022-08-09T06:40:00.185Z,22.47
2022-08-09T06:40:56.426Z,22.53
2022-08-09T06:42:09.434Z,22.56
2022-08-09T06:42:57.032Z,22.62
2022-08-09T06:43:56.342Z,22.62
2022-08-09T06:44:57.276Z,22.67
2022-08-09T06:46:07.215Z,22.71
2022-08-09T06:46:58.164Z,22.71
2022-08-09T06:47:57.910Z,22.74
2022-08-09T06:49:00.163Z,22.75
2022-08-09T06:50:14.154Z,22.78
2022-08-09T06:50:59.203Z,22.83
2022-08-09T06:51:58.492Z,22.84
2022-08-09T06:52:58.761Z,22.86
2022-08-09T06:54:00.878Z,22.89
2022-08-09T06:54:59.285Z,22.92
2022-08-09T06:55:59.581Z,22.92
2022-08-09T06:56:59.860Z,22.87
2022-08-09T06:58:02.956Z,22.86
2022-08-09T07:00:50.662Z,22.89
2022-08-09T07:00:54.310Z,22.90
2022-08-09T07:01:01.994Z,22.94
2022-08-09T07:02:04.356Z,23.01
2022-08-09T07:03:01.513Z,23.04
2022-08-09T07:04:01.813Z,23.05
2022-08-09T07:05:02.060Z,23.11
2022-08-09T07:06:05.124Z,23.17
2022-08-09T07:07:04.695Z,23.23
2022-08-09T07:08:02.931Z,23.29
2022-08-09T07:09:03.295Z,23.35
2022-08-09T07:10:17.934Z,23.40
2022-08-09T07:11:06.256Z,23.45
2022-08-09T07:12:04.178Z,23.49
2022-08-09T07:13:18.545Z,23.52
2022-08-09T07:14:06.429Z,23.52
2022-08-09T07:16:38.787Z,23.53
2022-08-09T07:16:41.087Z,23.62
2022-08-09T07:17:08.173Z,23.68
2022-08-09T07:18:05.804Z,23.75
2022-08-09T07:19:06.126Z,23.82
2022-08-09T07:20:06.435Z,23.82
2022-08-09T07:21:07.936Z,23.86
2022-08-09T07:22:06.975Z,23.90
2022-08-09T07:23:18.477Z,23.94
2022-08-09T07:24:08.542Z,23.98
2022-08-09T07:25:09.609Z,24.05
2022-08-09T07:26:08.108Z,24.07
2022-08-09T07:27:10.928Z,24.08
2022-08-09T07:28:09.699Z,24.05
2022-08-09T07:29:13.300Z,24.10
2022-08-09T07:30:09.240Z,24.13
2022-08-09T07:31:09.588Z,24.16
2022-08-09T07:32:09.765Z,24.19
2022-08-09T07:33:10.390Z,24.19
2022-08-09T07:34:19.507Z,24.20
2022-08-09T07:35:12.011Z,24.27
2022-08-09T07:36:10.841Z,24.35
2022-08-09T07:37:16.069Z,24.39
2022-08-09T07:38:12.482Z,24.41
2022-08-09T07:39:12.034Z,24.47
2022-08-09T07:40:13.273Z,24.53
2022-08-09T07:41:12.883Z,24.56
2022-08-09T07:42:12.546Z,24.59
2022-08-09T07:43:16.427Z,24.63
2022-08-09T07:44:13.153Z,24.63
2022-08-09T07:45:15.171Z,24.69
2022-08-09T07:46:17.171Z,24.73
2022-08-09T07:47:15.671Z,24.77
2022-08-09T07:48:25.699Z,24.83
2022-08-09T07:49:15.684Z,24.87
2022-08-09T07:50:14.787Z,24.92
2022-08-09T07:52:03.255Z,24.92
2022-08-09T07:52:17.233Z,24.98
2022-08-09T07:53:16.764Z,25.01
2022-08-09T07:54:19.213Z,25.09
2022-08-09T07:55:17.209Z,25.15
2022-08-09T07:56:26.849Z,25.19
2022-08-09T07:57:17.809Z,25.22
2022-08-09T07:58:17.134Z,25.27
2022-08-09T07:59:25.189Z,25.32
2022-08-09T08:00:20.772Z,25.38
2022-08-09T08:01:21.539Z,25.46
2022-08-09T08:02:20.143Z,25.52
2022-08-09T08:03:18.438Z,25.53
2022-08-09T08:04:19.675Z,25.61
2022-08-09T08:05:20.005Z,25.62
2022-08-09T08:06:21.196Z,25.68
2022-08-09T08:08:42.766Z,25.83
2022-08-09T08:09:00.877Z,25.93
2022-08-09T08:09:35.444Z,25.98
2022-08-09T08:10:21.551Z,26.06
2022-08-09T08:12:11.112Z,26.15
2022-08-09T08:12:27.682Z,26.15
2022-08-09T08:13:22.496Z,26.17
2022-08-09T08:14:24.062Z,26.29
2022-08-09T08:15:23.157Z,26.49
2022-08-09T08:16:29.809Z,26.61
2022-08-09T08:17:35.455Z,26.69
2022-08-09T08:18:23.963Z,26.87
2022-08-09T08:19:25.765Z,27.06
2022-08-09T08:20:29.336Z,27.33
2022-08-09T08:21:24.762Z,27.48
2022-08-09T08:22:25.626Z,27.50
2022-08-09T08:23:27.191Z,27.58
2022-08-09T08:24:24.553Z,27.73
2022-08-09T08:25:25.810Z,27.94
2022-08-09T08:26:26.355Z,28.25
2022-08-09T08:27:26.087Z,28.63
2022-08-09T08:28:32.904Z,29.07
2022-08-09T08:29:27.368Z,29.57
2022-08-09T08:30:26.248Z,29.99
2022-08-09T08:32:02.744Z,30.38
2022-08-09T08:32:28.979Z,30.72
2022-08-09T08:33:27.044Z,31.21
2022-08-09T08:34:28.283Z,31.24
2022-08-09T08:35:28.278Z,31.46
2022-08-09T08:36:30.764Z,31.77
2022-08-09T08:37:41.606Z,32.14
2022-08-09T08:38:29.364Z,32.51
2022-08-09T08:39:28.723Z,32.67
2022-08-09T08:40:29.726Z,32.77
2022-08-09T08:41:50.767Z,32.80
2022-08-09T08:42:32.129Z,32.99
2022-08-09T08:43:29.658Z,33.31
2022-08-09T08:44:29.905Z,33.51
2022-08-09T08:45:37.777Z,33.61
2022-08-09T08:46:33.438Z,33.78
2022-08-09T08:47:30.649Z,33.79
2022-08-09T08:48:31.149Z,34.08
2022-08-09T08:49:38.920Z,34.29
2022-08-09T08:50:32.529Z,33.92
2022-08-09T08:51:41.734Z,33.98
2022-08-09T08:53:37.352Z,34.29
2022-08-09T08:54:32.720Z,34.39
2022-08-09T08:55:32.931Z,34.57
2022-08-09T08:56:33.182Z,34.70
2022-08-09T08:57:35.120Z,34.99
2022-08-09T08:58:36.045Z,35.23
2022-08-09T08:59:46.509Z,35.35
2022-08-09T09:00:35.479Z,35.39
2022-08-09T09:01:35.666Z,35.60
2022-08-09T09:02:36.237Z,35.93
2022-08-09T09:03:37.940Z,35.66
2022-08-09T09:04:47.550Z,35.93
2022-08-09T09:05:58.264Z,36.20
2022-08-09T09:06:36.988Z,36.36
2022-08-09T09:07:37.083Z,36.30
2022-08-09T09:08:42.249Z,36.27
2022-08-09T09:09:58.318Z,36.42
2022-08-09T09:10:38.351Z,36.49
2022-08-09T09:11:38.455Z,36.46
2022-08-09T09:12:37.970Z,36.54
2022-08-09T09:13:47.365Z,36.31
2022-08-09T09:14:39.499Z,35.97
2022-08-09T09:15:38.629Z,36.17
2022-08-09T09:16:38.972Z,36.33
2022-08-09T09:17:49.150Z,36.41
2022-08-09T09:18:43.346Z,36.46
2022-08-09T09:19:41.890Z,36.70
2022-08-09T09:20:40.082Z,37.02
2022-08-09T09:21:43.343Z,37.09
2022-08-09T09:22:41.626Z,37.19
2022-08-09T09:23:41.012Z,36.86
2022-08-09T09:24:43.470Z,36.82
2022-08-09T09:26:04.363Z,36.63
2022-08-09T09:26:43.744Z,36.57
2022-08-09T09:28:04.985Z,36.56
2022-08-09T09:29:04.152Z,36.68
2022-08-09T09:30:12.112Z,36.95
2022-08-09T09:30:43.934Z,36.86
2022-08-09T09:32:04.578Z,36.86
2022-08-09T09:32:44.959Z,36.85
2022-08-09T09:33:44.274Z,36.79
2022-08-09T09:34:44.697Z,36.79
2022-08-09T09:35:47.989Z,36.97
2022-08-09T09:36:46.933Z,37.21
2022-08-09T09:37:45.839Z,37.36
2022-08-09T09:38:45.060Z,37.47
2022-08-09T09:39:55.448Z,37.51
2022-08-09T09:40:46.610Z,37.77
2022-08-09T09:41:49.631Z,37.70
2022-08-09T09:42:46.592Z,37.74
2022-08-09T09:44:11.670Z,37.77
2022-08-09T09:44:47.707Z,37.73
2022-08-09T09:46:52.141Z,37.51
2022-08-09T09:47:56.510Z,37.39
2022-08-09T09:48:48.862Z,37.59
2022-08-09T09:50:06.779Z,37.78
2022-08-09T09:50:51.247Z,37.85
2022-08-09T09:51:51.388Z,37.95
2022-08-09T09:52:53.676Z,37.99
2022-08-09T09:53:57.442Z,37.98
2022-08-09T09:54:55.062Z,37.89
2022-08-09T09:56:03.874Z,37.90
2022-08-09T09:56:53.219Z,38.15
2022-08-09T09:58:00.619Z,38.38
2022-08-09T09:58:53.425Z,38.53
2022-08-09T09:59:52.168Z,38.63
2022-08-09T10:00:53.875Z,38.58
2022-08-09T10:01:51.750Z,38.58
2022-08-09T10:02:52.014Z,38.52
2022-08-09T10:03:57.930Z,38.67
2022-08-09T10:04:53.580Z,38.79
2022-08-09T10:06:00.858Z,38.92
2022-08-09T10:06:54.402Z,38.78
2022-08-09T10:08:01.218Z,38.71
2022-08-09T10:08:57.566Z,38.68
2022-08-09T10:09:55.094Z,38.75
2022-08-09T10:10:54.211Z,38.83
2022-08-09T10:12:04.476Z,39.09
2022-08-09T10:12:56.069Z,39.06
2022-08-09T10:13:54.951Z,39.17
2022-08-09T10:14:55.203Z,39.14
2022-08-09T10:16:55.644Z,38.78
2022-08-09T10:17:05.269Z,38.51
2022-08-09T10:17:57.169Z,38.71
2022-08-09T10:18:56.355Z,38.73
2022-08-09T10:19:57.033Z,37.83
2022-08-09T10:20:56.955Z,37.14
2022-08-09T10:21:57.212Z,36.76
2022-08-09T10:23:00.655Z,36.36
2022-08-09T10:23:57.884Z,36.67
2022-08-09T10:24:58.071Z,36.57
2022-08-09T10:26:07.839Z,36.51
2022-08-09T10:26:59.683Z,36.73
2022-08-09T10:27:58.969Z,37.28
2022-08-09T10:29:33.686Z,37.56
2022-08-09T10:30:43.847Z,37.98
2022-08-09T10:33:00.874Z,38.90
2022-08-09T10:34:08.589Z,39.15
2022-08-09T10:35:01.941Z,39.25
2022-08-09T10:36:02.393Z,39.36
2022-08-09T10:37:01.488Z,39.69
2022-08-09T10:38:01.755Z,39.77
2022-08-09T10:39:02.125Z,39.77
2022-08-09T10:40:02.370Z,39.92
2022-08-09T10:41:02.656Z,39.84
2022-08-09T10:42:03.684Z,39.67
2022-08-09T10:43:03.284Z,38.87
2022-08-09T10:44:03.561Z,38.89
2022-08-09T10:45:04.271Z,39.21
2022-08-09T10:46:05.137Z,39.28
2022-08-09T10:47:28.145Z,39.36
2022-08-09T10:48:13.219Z,39.58
2022-08-09T10:49:05.966Z,39.80
2022-08-09T10:50:05.446Z,40.15
2022-08-09T10:51:05.702Z,40.19
2022-08-09T10:52:05.987Z,39.76
2022-08-09T10:53:10.470Z,39.80
2022-08-09T10:54:06.745Z,39.14
2022-08-09T10:55:07.804Z,39.39
2022-08-09T10:56:07.065Z,38.96
2022-08-09T10:57:07.259Z,38.82
2022-08-09T10:58:07.518Z,39.37
2022-08-09T10:59:07.836Z,39.64
2022-08-09T11:00:08.191Z,40.11
2022-08-09T11:03:06.781Z,39.55
2022-08-09T11:03:14.430Z,39.58
2022-08-09T11:03:18.833Z,39.80
2022-08-09T11:04:19.771Z,39.90
2022-08-09T11:05:11.505Z,38.73
2022-08-09T11:06:10.864Z,38.67
2022-08-09T11:07:10.135Z,39.15
2022-08-09T11:08:10.368Z,39.24
2022-08-09T11:09:15.756Z,39.47
2022-08-09T11:10:11.923Z,39.61
2022-08-09T11:11:11.197Z,39.88
2022-08-09T11:12:11.510Z,39.81
2022-08-09T11:13:11.744Z,39.37
2022-08-09T11:14:13.133Z,39.28
2022-08-09T11:15:15.428Z,39.21
2022-08-09T11:16:13.605Z,39.67
2022-08-09T11:17:13.940Z,40.08
2022-08-09T11:18:13.691Z,40.56
2022-08-09T11:19:13.508Z,40.94
2022-08-09T11:20:22.772Z,39.80
2022-08-09T11:21:15.052Z,39.73
2022-08-09T11:22:18.954Z,40.21
2022-08-09T11:23:15.595Z,40.29
2022-08-09T11:24:14.831Z,40.50
2022-08-09T11:25:15.137Z,40.21
2022-08-09T11:26:15.417Z,40.24
2022-08-09T11:27:16.646Z,39.88
2022-08-09T11:28:30.688Z,40.02
2022-08-09T11:29:17.252Z,40.07
2022-08-09T11:30:32.116Z,39.69
2022-08-09T11:31:17.869Z,38.73
2022-08-09T11:32:18.194Z,37.80
2022-08-09T11:33:17.585Z,37.14
2022-08-09T11:34:18.823Z,37.42
2022-08-09T11:35:18.111Z,38.12
2022-08-09T11:36:35.556Z,38.55
2022-08-09T11:37:19.637Z,39.02
2022-08-09T11:38:18.891Z,38.18
2022-08-09T11:39:19.319Z,38.11
2022-08-09T11:40:19.471Z,38.39
2022-08-09T11:41:19.809Z,38.86
2022-08-09T11:42:20.043Z,38.98
2022-08-09T11:43:20.257Z,39.14
2022-08-09T11:44:20.572Z,39.51
2022-08-09T11:45:20.830Z,39.67
2022-08-09T11:46:32.814Z,39.39
2022-08-09T11:47:22.346Z,39.06
2022-08-09T11:48:26.128Z,38.61
2022-08-09T11:49:28.168Z,38.45
2022-08-09T11:50:53.222Z,37.80
2022-08-09T11:53:02.149Z,37.98
2022-08-09T11:53:16.261Z,37.96
2022-08-09T11:54:01.620Z,37.71
2022-08-09T11:54:29.737Z,37.70
2022-08-09T11:55:52.575Z,37.17
2022-08-09T11:56:34.496Z,35.88
2022-08-09T11:57:28.296Z,34.92
2022-08-09T11:58:32.305Z,34.36
2022-08-09T11:59:30.650Z,34.86
2022-08-09T12:00:27.494Z,35.82
2022-08-09T12:02:00.967Z,36.43
2022-08-09T12:02:37.686Z,36.52
2022-08-09T12:03:50.498Z,36.36
2022-08-09T12:04:28.918Z,36.21
2022-08-09T12:05:27.574Z,36.20
2022-08-09T12:06:32.771Z,36.20
2022-08-09T12:07:28.009Z,36.20
2022-08-09T12:08:28.320Z,36.17
2022-08-09T12:09:27.487Z,36.12
2022-08-09T12:10:39.557Z,35.97
2022-08-09T12:11:29.076Z,35.70
2022-08-09T12:12:29.254Z,35.52
2022-08-09T12:14:09.887Z,35.01
2022-08-09T12:14:36.770Z,34.80
2022-08-09T12:15:30.261Z,34.89
2022-08-09T12:16:37.592Z,34.89
2022-08-09T12:17:42.230Z,34.83
2022-08-09T12:18:33.687Z,34.74
2022-08-09T12:19:30.603Z,34.69
2022-08-09T12:20:30.817Z,34.69
2022-08-09T12:21:38.221Z,34.48
2022-08-09T12:22:32.528Z,34.29
2022-08-09T12:23:58.799Z,34.26
2022-08-09T12:24:32.899Z,34.17
2022-08-09T12:25:37.183Z,34.05
2022-08-09T12:26:33.492Z,33.90
2022-08-09T12:28:59.683Z,33.90
2022-08-09T12:29:10.640Z,33.94
2022-08-09T12:29:44.551Z,33.95
2022-08-09T12:30:35.441Z,33.92
2022-08-09T12:32:02.344Z,33.85
2022-08-09T12:32:35.376Z,33.71
2022-08-09T12:33:59.278Z,33.29
2022-08-09T12:34:36.635Z,33.14
2022-08-09T12:35:40.827Z,33.13
2022-08-09T12:36:36.427Z,33.11
2022-08-09T12:37:50.768Z,33.13
2022-08-09T12:38:38.167Z,33.07
2022-08-09T12:39:37.659Z,32.35
2022-08-09T12:40:36.509Z,32.25
2022-08-09T12:41:40.157Z,32.25
2022-08-09T12:42:37.257Z,32.06
2022-08-09T12:44:05.212Z,32.10
2022-08-09T12:44:38.566Z,31.99
2022-08-09T12:45:38.213Z,32.14
2022-08-09T12:46:38.206Z,32.30
2022-08-09T12:47:42.699Z,32.48
2022-08-09T12:48:39.708Z,32.58
2022-08-09T12:49:38.970Z,32.67
2022-08-09T12:50:41.137Z,32.80
2022-08-09T12:52:00.265Z,32.88
2022-08-09T12:52:58.564Z,33.04
2022-08-09T12:53:44.824Z,33.08
2022-08-09T12:54:41.387Z,33.13
2022-08-09T12:56:15.157Z,33.13
2022-08-09T12:56:48.314Z,33.11
2022-08-09T12:57:42.306Z,33.14
2022-08-09T12:58:42.954Z,33.10
2022-08-09T13:00:03.277Z,32.96